Nellis Air Force Base
KLSV : now visible

Airfield :











YOU CAN JOIN US ON...

 
LOGIN :

Register | Disclaimer

   EN    FR    IT 

 









Legend :    VFR   Marginal VFR   IFR   Intensive IFR   Very Intensive IFR
Visi :
Ceiling :
>= 8 km
>= 3000ft
5 to 8 km
1000 to 3000 ft
1500m to 5 km
500 to 1000 ft
800 to 1500m
200 to 500 ft
< 800m
< 200 ft
Symbols :   Thunderstorms  Fog  Heavy snow  Heavy precipitations  Wind > 20 kt






- Airport Elevation : 1870 ft


KLSV - Nellis Air Force Base

CURRENT METAR :
  • 142258Z AUTO 23017G21KT 10SM CLR 42/M09 A2974 RMK AO2 PK WND 23028/00 SLP039 T04151087 $

EXPIRED METARs :
  • 142158Z AUTO 23016G24KT 10SM CLR 42/M09 A2976 RMK AO2 SLP046 T04161086 $
  • 142130Z AUTO 20013G22KT 10SM CLR 41/M09 A2977 RMK AO2 WSHFT 20 SLP050 $
  • 142058Z AUTO 23014G25KT 10SM CLR 41/M09 A2978 RMK AO2 PK WND 21031/10 SLP053 T04091091 57016 $

TAF TAF KLSV
Valid from the 14 at 23:00 until the 16 at 05:00 UTC


142300Z 1423/1605 21015G25KT 9999 SKC 520009 QNH2975INS
BECMG 1502/1503 25010KT 9999 SKC QNH2972INS
BECMG 1518/1519 15015G22KT 9999 SKC 510009 QNH2969INS
BECMG 1601/1602 VRB06KT 9999 FEW220 QNH2973INS TX42/1423Z TN31/1513Z
KZLA FIR / North America



MET'MAP, your aeronautical weather chart ! - Copyright ORBIFLY December 2007 - Disclaimer

ORBIFLY MET'MAP TEAM :

Programming & Development : Alexandra Zaïnal
Concept & original design : Baudouin d'Aumeries
Assistance for programming : Marc-Olivier Méhu
Technical & hardware support : Manuel Goepfert

Contact : metmap@orbifly.com




SOURCES & CREDITS :

   NOAA       Earth
Advisory